sensor_id;sensor_type;location;lat;lon;timestamp;pressure;altitude;pressure_sealevel;temperature;humidity
79048;BME280;68680;50.764;6.120;2024-02-21T00:01:37;100205.47;;;7.93;nan
79048;BME280;68680;50.764;6.120;2024-02-21T00:04:04;100208.44;;;7.83;nan
79048;BME280;68680;50.764;6.120;2024-02-21T00:06:31;100202.47;;;7.81;nan
79048;BME280;68680;50.764;6.120;2024-02-21T00:08:57;100200.91;;;7.87;nan
79048;BME280;68680;50.764;6.120;2024-02-21T00:11:24;100199.81;;;7.81;nan
79048;BME280;68680;50.764;6.120;2024-02-21T00:13:49;100192.84;;;7.80;nan
79048;BME280;68680;50.764;6.120;2024-02-21T00:16:15;100186.78;;;7.87;nan
79048;BME280;68680;50.764;6.120;2024-02-21T00:18:41;100175.31;;;7.79;nan
79048;BME280;68680;50.764;6.120;2024-02-21T00:21:08;100183.88;;;7.81;nan
79048;BME280;68680;50.764;6.120;2024-02-21T00:23:34;100179.13;;;7.77;nan
79048;BME280;68680;50.764;6.120;2024-02-21T00:26:00;100184.53;;;7.83;nan
79048;BME280;68680;50.764;6.120;2024-02-21T00:28:26;100178.56;;;7.81;nan
79048;BME280;68680;50.764;6.120;2024-02-21T00:30:51;100172.25;;;7.82;nan
79048;BME280;68680;50.764;6.120;2024-02-21T00:33:17;100179.22;;;7.83;nan
79048;BME280;68680;50.764;6.120;2024-02-21T00:35:43;100172.09;;;7.69;nan
79048;BME280;68680;50.764;6.120;2024-02-21T00:38:10;100189.44;;;7.87;nan
79048;BME280;68680;50.764;6.120;2024-02-21T00:40:36;100170.34;;;7.76;nan
79048;BME280;68680;50.764;6.120;2024-02-21T00:43:02;100154.31;;;7.84;nan
79048;BME280;68680;50.764;6.120;2024-02-21T00:45:28;100159.22;;;7.88;nan
79048;BME280;68680;50.764;6.120;2024-02-21T00:47:54;100172.31;;;7.89;nan
79048;BME280;68680;50.764;6.120;2024-02-21T00:50:19;100160.88;;;7.89;nan
79048;BME280;68680;50.764;6.120;2024-02-21T00:52:45;100151.16;;;7.96;nan
79048;BME280;68680;50.764;6.120;2024-02-21T00:55:12;100153.09;;;7.87;nan
79048;BME280;68680;50.764;6.120;2024-02-21T00:57:38;100148.19;;;7.84;nan
79048;BME280;68680;50.764;6.120;2024-02-21T01:00:06;100134.81;;;7.77;nan
79048;BME280;68680;50.764;6.120;2024-02-21T01:02:31;100132.06;;;7.86;nan
79048;BME280;68680;50.764;6.120;2024-02-21T01:04:57;100127.28;;;7.81;nan
79048;BME280;68680;50.764;6.120;2024-02-21T01:07:23;100125.34;;;7.90;nan
79048;BME280;68680;50.764;6.120;2024-02-21T01:09:49;100113.97;;;7.74;nan
79048;BME280;68680;50.764;6.120;2024-02-21T01:12:16;100121.22;;;7.87;nan
79048;BME280;68680;50.764;6.120;2024-02-21T01:14:42;100120.41;;;7.87;nan
79048;BME280;68680;50.764;6.120;2024-02-21T01:17:08;100119.97;;;7.83;nan
79048;BME280;68680;50.764;6.120;2024-02-21T01:19:34;100092.44;;;7.69;nan
79048;BME280;68680;50.764;6.120;2024-02-21T01:21:59;100101.78;;;7.80;nan
79048;BME280;68680;50.764;6.120;2024-02-21T01:24:25;100104.59;;;7.78;nan
79048;BME280;68680;50.764;6.120;2024-02-21T01:26:51;100100.69;;;7.74;nan
79048;BME280;68680;50.764;6.120;2024-02-21T01:29:18;100103.06;;;7.69;nan
79048;BME280;68680;50.764;6.120;2024-02-21T01:31:44;100093.28;;;7.70;nan
79048;BME280;68680;50.764;6.120;2024-02-21T01:34:10;100093.22;;;7.84;nan
79048;BME280;68680;50.764;6.120;2024-02-21T01:36:35;100082.78;;;7.83;nan
79048;BME280;68680;50.764;6.120;2024-02-21T01:39:01;100084.94;;;7.73;nan
79048;BME280;68680;50.764;6.120;2024-02-21T01:41:29;100083.97;;;7.80;nan
79048;BME280;68680;50.764;6.120;2024-02-21T01:43:55;100082.16;;;7.81;nan
79048;BME280;68680;50.764;6.120;2024-02-21T01:46:22;100077.41;;;7.76;nan
79048;BME280;68680;50.764;6.120;2024-02-21T01:48:49;100066.78;;;7.76;nan
79048;BME280;68680;50.764;6.120;2024-02-21T01:51:15;100073.47;;;7.94;nan
79048;BME280;68680;50.764;6.120;2024-02-21T01:53:44;100063.50;;;7.96;nan
79048;BME280;68680;50.764;6.120;2024-02-21T01:56:10;100073.47;;;7.94;nan
79048;BME280;68680;50.764;6.120;2024-02-21T01:58:40;100069.50;;;7.83;nan
79048;BME280;68680;50.764;6.120;2024-02-21T02:01:07;100069.19;;;7.93;nan
79048;BME280;68680;50.764;6.120;2024-02-21T02:03:35;100055.66;;;7.88;nan
79048;BME280;68680;50.764;6.120;2024-02-21T02:06:00;100044.41;;;7.86;nan
79048;BME280;68680;50.764;6.120;2024-02-21T02:08:27;100052.13;;;7.80;nan
79048;BME280;68680;50.764;6.120;2024-02-21T02:10:52;100046.88;;;7.87;nan
79048;BME280;68680;50.764;6.120;2024-02-21T02:13:18;100050.41;;;7.94;nan
79048;BME280;68680;50.764;6.120;2024-02-21T02:15:46;100055.66;;;7.88;nan
79048;BME280;68680;50.764;6.120;2024-02-21T02:18:14;100046.69;;;7.89;nan
79048;BME280;68680;50.764;6.120;2024-02-21T02:20:41;100046.75;;;7.95;nan
79048;BME280;68680;50.764;6.120;2024-02-21T02:23:10;100038.91;;;7.87;nan
79048;BME280;68680;50.764;6.120;2024-02-21T02:25:39;100048.28;;;7.83;nan
79048;BME280;68680;50.764;6.120;2024-02-21T02:28:06;100046.81;;;7.80;nan
79048;BME280;68680;50.764;6.120;2024-02-21T02:30:32;100048.56;;;7.95;nan
79048;BME280;68680;50.764;6.120;2024-02-21T02:32:58;100039.72;;;7.88;nan
79048;BME280;68680;50.764;6.120;2024-02-21T02:35:24;100040.41;;;7.96;nan
79048;BME280;68680;50.764;6.120;2024-02-21T02:37:50;100033.81;;;7.86;nan
79048;BME280;68680;50.764;6.120;2024-02-21T02:40:16;100024.00;;;7.86;nan
79048;BME280;68680;50.764;6.120;2024-02-21T02:42:43;100014.88;;;7.95;nan
79048;BME280;68680;50.764;6.120;2024-02-21T02:45:09;100018.72;;;7.93;nan
79048;BME280;68680;50.764;6.120;2024-02-21T02:47:35;100014.91;;;7.74;nan
79048;BME280;68680;50.764;6.120;2024-02-21T02:50:01;100004.53;;;7.79;nan
79048;BME280;68680;50.764;6.120;2024-02-21T02:52:27;100004.31;;;7.80;nan
79048;BME280;68680;50.764;6.120;2024-02-21T02:54:53;99996.69;;;7.99;nan
79048;BME280;68680;50.764;6.120;2024-02-21T02:57:19;99997.44;;;8.14;nan
79048;BME280;68680;50.764;6.120;2024-02-21T02:59:50;99989.25;;;7.88;nan
79048;BME280;68680;50.764;6.120;2024-02-21T03:02:16;99992.50;;;7.83;nan
79048;BME280;68680;50.764;6.120;2024-02-21T03:04:42;99999.06;;;7.87;nan
79048;BME280;68680;50.764;6.120;2024-02-21T03:07:08;99990.53;;;7.92;nan
79048;BME280;68680;50.764;6.120;2024-02-21T03:09:33;99979.28;;;7.90;nan
79048;BME280;68680;50.764;6.120;2024-02-21T03:11:59;99969.72;;;7.95;nan
79048;BME280;68680;50.764;6.120;2024-02-21T03:14:25;99972.91;;;7.84;nan
79048;BME280;68680;50.764;6.120;2024-02-21T03:16:53;99956.97;;;7.84;nan
79048;BME280;68680;50.764;6.120;2024-02-21T03:19:18;99969.28;;;7.92;nan
79048;BME280;68680;50.764;6.120;2024-02-21T03:21:44;99964.31;;;7.82;nan
79048;BME280;68680;50.764;6.120;2024-02-21T03:24:10;99962.03;;;8.07;nan
79048;BME280;68680;50.764;6.120;2024-02-21T03:26:36;99972.56;;;7.94;nan
79048;BME280;68680;50.764;6.120;2024-02-21T03:29:03;99966.47;;;8.00;nan
79048;BME280;68680;50.764;6.120;2024-02-21T03:31:29;99971.19;;;7.98;nan
79048;BME280;68680;50.764;6.120;2024-02-21T03:33:56;99956.19;;;7.90;nan
79048;BME280;68680;50.764;6.120;2024-02-21T03:36:21;99961.44;;;8.11;nan
79048;BME280;68680;50.764;6.120;2024-02-21T03:38:47;99957.94;;;8.11;nan
79048;BME280;68680;50.764;6.120;2024-02-21T03:41:13;99965.09;;;8.10;nan
79048;BME280;68680;50.764;6.120;2024-02-21T03:43:39;99959.56;;;8.05;nan
79048;BME280;68680;50.764;6.120;2024-02-21T03:46:05;99946.94;;;8.14;nan
79048;BME280;68680;50.764;6.120;2024-02-21T03:48:31;99956.31;;;8.10;nan
79048;BME280;68680;50.764;6.120;2024-02-21T03:50:58;99941.03;;;8.18;nan
79048;BME280;68680;50.764;6.120;2024-02-21T03:53:24;99953.88;;;8.08;nan
79048;BME280;68680;50.764;6.120;2024-02-21T03:55:50;99945.50;;;8.11;nan
79048;BME280;68680;50.764;6.120;2024-02-21T03:58:15;99942.91;;;8.24;nan
79048;BME280;68680;50.764;6.120;2024-02-21T04:00:41;99951.25;;;8.21;nan
79048;BME280;68680;50.764;6.120;2024-02-21T04:03:07;99937.41;;;8.26;nan
79048;BME280;68680;50.764;6.120;2024-02-21T04:05:33;99931.38;;;8.11;nan
79048;BME280;68680;50.764;6.120;2024-02-21T04:08:03;99930.53;;;8.04;nan
79048;BME280;68680;50.764;6.120;2024-02-21T04:10:29;99933.44;;;8.15;nan
79048;BME280;68680;50.764;6.120;2024-02-21T04:12:55;99927.72;;;8.12;nan
79048;BME280;68680;50.764;6.120;2024-02-21T04:15:21;99930.22;;;8.20;nan
79048;BME280;68680;50.764;6.120;2024-02-21T04:17:46;99935.72;;;8.18;nan
79048;BME280;68680;50.764;6.120;2024-02-21T04:20:15;99932.22;;;8.11;nan
79048;BME280;68680;50.764;6.120;2024-02-21T04:22:42;99932.63;;;8.08;nan
79048;BME280;68680;50.764;6.120;2024-02-21T04:25:10;99930.94;;;8.01;nan
79048;BME280;68680;50.764;6.120;2024-02-21T04:27:35;99925.22;;;8.04;nan
79048;BME280;68680;50.764;6.120;2024-02-21T04:30:01;99913.81;;;8.10;nan
79048;BME280;68680;50.764;6.120;2024-02-21T04:32:27;99907.69;;;8.09;nan
79048;BME280;68680;50.764;6.120;2024-02-21T04:34:53;99903.22;;;8.16;nan
79048;BME280;68680;50.764;6.120;2024-02-21T04:37:18;99918.31;;;8.09;nan
79048;BME280;68680;50.764;6.120;2024-02-21T04:39:45;99918.16;;;8.17;nan
79048;BME280;68680;50.764;6.120;2024-02-21T04:42:12;99921.72;;;8.31;nan
79048;BME280;68680;50.764;6.120;2024-02-21T04:44:38;99911.22;;;8.23;nan
79048;BME280;68680;50.764;6.120;2024-02-21T04:47:04;99918.31;;;8.09;nan
79048;BME280;68680;50.764;6.120;2024-02-21T04:49:30;99916.50;;;8.16;nan
79048;BME280;68680;50.764;6.120;2024-02-21T04:51:56;99908.75;;;8.15;nan
79048;BME280;68680;50.764;6.120;2024-02-21T04:54:21;99910.41;;;8.22;nan
79048;BME280;68680;50.764;6.120;2024-02-21T04:56:47;99912.19;;;8.09;nan
79048;BME280;68680;50.764;6.120;2024-02-21T04:59:14;99900.69;;;8.02;nan
79048;BME280;68680;50.764;6.120;2024-02-21T05:01:40;99900.75;;;8.08;nan
79048;BME280;68680;50.764;6.120;2024-02-21T05:04:06;99894.19;;;8.11;nan
79048;BME280;68680;50.764;6.120;2024-02-21T05:06:32;99896.81;;;8.04;nan
79048;BME280;68680;50.764;6.120;2024-02-21T05:08:57;99895.44;;;8.08;nan
79048;BME280;68680;50.764;6.120;2024-02-21T05:11:24;99896.63;;;8.06;nan
79048;BME280;68680;50.764;6.120;2024-02-21T05:13:51;99889.66;;;8.05;nan
79048;BME280;68680;50.764;6.120;2024-02-21T05:16:18;99889.91;;;8.10;nan
79048;BME280;68680;50.764;6.120;2024-02-21T05:18:43;99885.38;;;8.04;nan
79048;BME280;68680;50.764;6.120;2024-02-21T05:21:09;99900.16;;;8.13;nan
79048;BME280;68680;50.764;6.120;2024-02-21T05:23:35;99882.25;;;7.94;nan
79048;BME280;68680;50.764;6.120;2024-02-21T05:26:01;99879.41;;;7.95;nan
79048;BME280;68680;50.764;6.120;2024-02-21T05:28:26;99879.69;;;8.07;nan
79048;BME280;68680;50.764;6.120;2024-02-21T05:30:52;99862.25;;;7.91;nan
79048;BME280;68680;50.764;6.120;2024-02-21T05:33:19;99872.09;;;8.04;nan
79048;BME280;68680;50.764;6.120;2024-02-21T05:35:45;99862.16;;;8.19;nan
79048;BME280;68680;50.764;6.120;2024-02-21T05:38:11;99863.50;;;8.02;nan
79048;BME280;68680;50.764;6.120;2024-02-21T05:40:37;99858.22;;;8.02;nan
79048;BME280;68680;50.764;6.120;2024-02-21T05:43:03;99853.75;;;8.09;nan
79048;BME280;68680;50.764;6.120;2024-02-21T05:45:29;99853.78;;;8.22;nan
79048;BME280;68680;50.764;6.120;2024-02-21T05:47:54;99858.69;;;8.18;nan
79048;BME280;68680;50.764;6.120;2024-02-21T05:50:21;99834.28;;;8.02;nan
79048;BME280;68680;50.764;6.120;2024-02-21T05:52:47;99843.75;;;8.17;nan
79048;BME280;68680;50.764;6.120;2024-02-21T05:55:13;99837.19;;;8.07;nan
79048;BME280;68680;50.764;6.120;2024-02-21T05:57:39;99842.66;;;7.99;nan
79048;BME280;68680;50.764;6.120;2024-02-21T06:00:06;99818.97;;;7.97;nan
79048;BME280;68680;50.764;6.120;2024-02-21T06:02:32;99827.09;;;7.89;nan
79048;BME280;68680;50.764;6.120;2024-02-21T06:04:58;99832.88;;;8.06;nan
79048;BME280;68680;50.764;6.120;2024-02-21T06:07:28;99829.97;;;7.94;nan
79048;BME280;68680;50.764;6.120;2024-02-21T06:09:53;99838.34;;;7.91;nan
79048;BME280;68680;50.764;6.120;2024-02-21T06:12:19;99831.56;;;7.89;nan
79048;BME280;68680;50.764;6.120;2024-02-21T06:14:45;99825.88;;;7.92;nan
79048;BME280;68680;50.764;6.120;2024-02-21T06:17:11;99828.69;;;7.83;nan
79048;BME280;68680;50.764;6.120;2024-02-21T06:19:39;99839.41;;;8.03;nan
79048;BME280;68680;50.764;6.120;2024-02-21T06:22:05;99834.72;;;8.05;nan
79048;BME280;68680;50.764;6.120;2024-02-21T06:24:32;99838.78;;;8.01;nan
79048;BME280;68680;50.764;6.120;2024-02-21T06:26:58;99843.69;;;7.98;nan
79048;BME280;68680;50.764;6.120;2024-02-21T06:29:24;99840.56;;;7.88;nan
79048;BME280;68680;50.764;6.120;2024-02-21T06:31:49;99823.22;;;7.98;nan
79048;BME280;68680;50.764;6.120;2024-02-21T06:34:15;99827.50;;;7.86;nan
79048;BME280;68680;50.764;6.120;2024-02-21T06:36:41;99825.59;;;7.73;nan
79048;BME280;68680;50.764;6.120;2024-02-21T06:39:07;99827.25;;;7.81;nan
79048;BME280;68680;50.764;6.120;2024-02-21T06:41:34;99822.47;;;7.70;nan
79048;BME280;68680;50.764;6.120;2024-02-21T06:43:59;99820.38;;;7.59;nan
79048;BME280;68680;50.764;6.120;2024-02-21T06:46:26;99806.34;;;7.65;nan
79048;BME280;68680;50.764;6.120;2024-02-21T06:48:52;99816.56;;;7.68;nan
79048;BME280;68680;50.764;6.120;2024-02-21T06:51:18;99815.75;;;7.67;nan
79048;BME280;68680;50.764;6.120;2024-02-21T06:53:44;99814.69;;;7.62;nan
79048;BME280;68680;50.764;6.120;2024-02-21T06:56:10;99811.50;;;7.73;nan
79048;BME280;68680;50.764;6.120;2024-02-21T06:58:37;99804.91;;;7.62;nan
79048;BME280;68680;50.764;6.120;2024-02-21T07:01:03;99811.03;;;7.69;nan
79048;BME280;68680;50.764;6.120;2024-02-21T07:03:29;99806.75;;;7.62;nan
79048;BME280;68680;50.764;6.120;2024-02-21T07:05:55;99805.13;;;7.67;nan
79048;BME280;68680;50.764;6.120;2024-02-21T07:08:20;99810.22;;;7.62;nan
79048;BME280;68680;50.764;6.120;2024-02-21T07:10:46;99818.44;;;7.74;nan
79048;BME280;68680;50.764;6.120;2024-02-21T07:13:12;99819.22;;;7.68;nan
79048;BME280;68680;50.764;6.120;2024-02-21T07:15:39;99829.91;;;7.81;nan
79048;BME280;68680;50.764;6.120;2024-02-21T07:18:05;99815.16;;;7.72;nan
79048;BME280;68680;50.764;6.120;2024-02-21T07:20:31;99820.69;;;7.77;nan
79048;BME280;68680;50.764;6.120;2024-02-21T07:22:57;99823.72;;;7.67;nan
79048;BME280;68680;50.764;6.120;2024-02-21T07:25:22;99819.44;;;7.73;nan
79048;BME280;68680;50.764;6.120;2024-02-21T07:27:48;99821.22;;;7.59;nan
79048;BME280;68680;50.764;6.120;2024-02-21T07:30:14;99819.22;;;7.68;nan
79048;BME280;68680;50.764;6.120;2024-02-21T07:32:41;99815.56;;;7.75;nan
79048;BME280;68680;50.764;6.120;2024-02-21T07:35:08;99820.31;;;7.80;nan
79048;BME280;68680;50.764;6.120;2024-02-21T07:37:34;99810.25;;;7.75;nan
79048;BME280;68680;50.764;6.120;2024-02-21T07:39:59;99809.94;;;7.92;nan
79048;BME280;68680;50.764;6.120;2024-02-21T07:42:25;99811.34;;;7.88;nan
79048;BME280;68680;50.764;6.120;2024-02-21T07:44:51;99795.81;;;7.84;nan
79048;BME280;68680;50.764;6.120;2024-02-21T07:47:17;99798.66;;;7.83;nan
79048;BME280;68680;50.764;6.120;2024-02-21T07:49:45;99796.59;;;7.78;nan
79048;BME280;68680;50.764;6.120;2024-02-21T07:52:10;99799.09;;;7.93;nan
79048;BME280;68680;50.764;6.120;2024-02-21T07:54:36;99781.94;;;7.89;nan
79048;BME280;68680;50.764;6.120;2024-02-21T07:57:02;99787.06;;;7.91;nan
79048;BME280;68680;50.764;6.120;2024-02-21T07:59:29;99786.34;;;7.69;nan
79048;BME280;68680;50.764;6.120;2024-02-21T08:01:56;99775.72;;;7.62;nan
79048;BME280;68680;50.764;6.120;2024-02-21T08:04:22;99778.03;;;7.78;nan
79048;BME280;68680;50.764;6.120;2024-02-21T08:06:52;99768.28;;;7.99;nan
79048;BME280;68680;50.764;6.120;2024-02-21T08:09:18;99752.16;;;8.00;nan
79048;BME280;68680;50.764;6.120;2024-02-21T08:11:44;99759.16;;;8.14;nan
79048;BME280;68680;50.764;6.120;2024-02-21T08:14:10;99752.59;;;8.10;nan
79048;BME280;68680;50.764;6.120;2024-02-21T08:16:35;99744.59;;;7.97;nan
79048;BME280;68680;50.764;6.120;2024-02-21T08:19:01;99734.41;;;8.14;nan
79048;BME280;68680;50.764;6.120;2024-02-21T08:21:27;99728.31;;;8.27;nan
79048;BME280;68680;50.764;6.120;2024-02-21T08:23:55;99727.25;;;8.08;nan
79048;BME280;68680;50.764;6.120;2024-02-21T08:26:20;99717.88;;;8.18;nan
79048;BME280;68680;50.764;6.120;2024-02-21T08:28:46;99709.03;;;8.05;nan
79048;BME280;68680;50.764;6.120;2024-02-21T08:31:19;99716.25;;;8.24;nan
79048;BME280;68680;50.764;6.120;2024-02-21T08:33:44;99704.56;;;8.05;nan
79048;BME280;68680;50.764;6.120;2024-02-21T08:36:17;99707.50;;;8.30;nan
79048;BME280;68680;50.764;6.120;2024-02-21T08:38:43;99698.84;;;8.08;nan
79048;BME280;68680;50.764;6.120;2024-02-21T08:41:10;99698.44;;;8.11;nan
79048;BME280;68680;50.764;6.120;2024-02-21T08:43:36;99689.25;;;8.27;nan
79048;BME280;68680;50.764;6.120;2024-02-21T08:46:03;99685.22;;;8.38;nan
79048;BME280;68680;50.764;6.120;2024-02-21T08:48:29;99672.94;;;8.30;nan
79048;BME280;68680;50.764;6.120;2024-02-21T08:50:54;99679.72;;;8.33;nan
79048;BME280;68680;50.764;6.120;2024-02-21T08:53:20;99665.16;;;8.09;nan
79048;BME280;68680;50.764;6.120;2024-02-21T08:55:46;99658.84;;;8.56;nan
79048;BME280;68680;50.764;6.120;2024-02-21T08:58:13;99651.06;;;8.68;nan
79048;BME280;68680;50.764;6.120;2024-02-21T09:00:39;99639.44;;;8.36;nan
79048;BME280;68680;50.764;6.120;2024-02-21T09:03:05;99634.31;;;8.47;nan
79048;BME280;68680;50.764;6.120;2024-02-21T09:05:30;99634.06;;;8.62;nan
79048;BME280;68680;50.764;6.120;2024-02-21T09:07:56;99628.16;;;8.73;nan
79048;BME280;68680;50.764;6.120;2024-02-21T09:10:22;99625.69;;;8.78;nan
79048;BME280;68680;50.764;6.120;2024-02-21T09:12:48;99607.47;;;8.82;nan
79048;BME280;68680;50.764;6.120;2024-02-21T09:15:15;99607.66;;;8.80;nan
79048;BME280;68680;50.764;6.120;2024-02-21T09:17:41;99606.81;;;8.93;nan
79048;BME280;68680;50.764;6.120;2024-02-21T09:20:08;99594.16;;;8.82;nan
79048;BME280;68680;50.764;6.120;2024-02-21T09:22:34;99580.69;;;8.77;nan
79048;BME280;68680;50.764;6.120;2024-02-21T09:25:00;99600.66;;;8.92;nan
79048;BME280;68680;50.764;6.120;2024-02-21T09:27:26;99588.78;;;9.08;nan
79048;BME280;68680;50.764;6.120;2024-02-21T09:29:52;99578.53;;;9.05;nan
79048;BME280;68680;50.764;6.120;2024-02-21T09:32:19;99588.84;;;8.75;nan
79048;BME280;68680;50.764;6.120;2024-02-21T09:34:45;99588.00;;;8.88;nan
79048;BME280;68680;50.764;6.120;2024-02-21T09:37:10;99582.66;;;8.94;nan
79048;BME280;68680;50.764;6.120;2024-02-21T09:39:36;99576.72;;;8.99;nan
79048;BME280;68680;50.764;6.120;2024-02-21T09:42:06;99574.84;;;9.13;nan
79048;BME280;68680;50.764;6.120;2024-02-21T09:44:37;99587.72;;;9.09;nan
79048;BME280;68680;50.764;6.120;2024-02-21T09:47:07;99567.16;;;8.85;nan
79048;BME280;68680;50.764;6.120;2024-02-21T09:49:36;99565.06;;;8.93;nan
79048;BME280;68680;50.764;6.120;2024-02-21T09:52:05;99567.31;;;8.96;nan
79048;BME280;68680;50.764;6.120;2024-02-21T09:54:32;99574.41;;;9.09;nan
79048;BME280;68680;50.764;6.120;2024-02-21T09:56:59;99570.09;;;9.15;nan
79048;BME280;68680;50.764;6.120;2024-02-21T09:59:26;99563.53;;;9.17;nan
79048;BME280;68680;50.764;6.120;2024-02-21T10:01:53;99564.22;;;9.06;nan
79048;BME280;68680;50.764;6.120;2024-02-21T10:04:19;99561.75;;;9.04;nan
79048;BME280;68680;50.764;6.120;2024-02-21T10:06:47;99560.28;;;9.15;nan
79048;BME280;68680;50.764;6.120;2024-02-21T10:09:21;99559.66;;;9.20;nan
79048;BME280;68680;50.764;6.120;2024-02-21T10:11:47;99560.88;;;9.17;nan
79048;BME280;68680;50.764;6.120;2024-02-21T10:14:13;99557.84;;;9.14;nan
79048;BME280;68680;50.764;6.120;2024-02-21T10:16:39;99547.22;;;9.07;nan
79048;BME280;68680;50.764;6.120;2024-02-21T10:19:04;99530.63;;;9.12;nan
79048;BME280;68680;50.764;6.120;2024-02-21T10:21:30;99531.78;;;9.22;nan
79048;BME280;68680;50.764;6.120;2024-02-21T10:23:57;99513.78;;;9.24;nan
79048;BME280;68680;50.764;6.120;2024-02-21T10:26:23;99509.66;;;9.28;nan
79048;BME280;68680;50.764;6.120;2024-02-21T10:28:49;99501.25;;;9.31;nan
79048;BME280;68680;50.764;6.120;2024-02-21T10:31:23;99499.00;;;9.28;nan
79048;BME280;68680;50.764;6.120;2024-02-21T10:33:55;99494.97;;;9.51;nan
79048;BME280;68680;50.764;6.120;2024-02-21T10:36:20;99486.69;;;9.34;nan
79048;BME280;68680;50.764;6.120;2024-02-21T10:38:46;99475.28;;;9.20;nan
79048;BME280;68680;50.764;6.120;2024-02-21T10:41:14;99463.00;;;9.51;nan
79048;BME280;68680;50.764;6.120;2024-02-21T10:43:41;99458.13;;;9.47;nan
79048;BME280;68680;50.764;6.120;2024-02-21T10:46:07;99459.44;;;9.63;nan
79048;BME280;68680;50.764;6.120;2024-02-21T10:48:42;99436.13;;;9.59;nan
79048;BME280;68680;50.764;6.120;2024-02-21T10:51:16;99447.38;;;9.61;nan
79048;BME280;68680;50.764;6.120;2024-02-21T10:53:47;99434.94;;;9.55;nan
79048;BME280;68680;50.764;6.120;2024-02-21T10:56:26;99402.72;;;9.81;nan
79048;BME280;68680;50.764;6.120;2024-02-21T10:58:54;99426.56;;;9.76;nan
79048;BME280;68680;50.764;6.120;2024-02-21T11:01:23;99407.91;;;9.76;nan
79048;BME280;68680;50.764;6.120;2024-02-21T11:03:52;99412.06;;;9.72;nan
79048;BME280;68680;50.764;6.120;2024-02-21T11:06:20;99395.47;;;9.70;nan
79048;BME280;68680;50.764;6.120;2024-02-21T11:08:47;99394.00;;;9.92;nan
79048;BME280;68680;50.764;6.120;2024-02-21T11:11:13;99391.50;;;9.97;nan
79048;BME280;68680;50.764;6.120;2024-02-21T11:13:41;99379.06;;;10.09;nan
79048;BME280;68680;50.764;6.120;2024-02-21T11:16:09;99370.50;;;9.89;nan
79048;BME280;68680;50.764;6.120;2024-02-21T11:18:35;99359.97;;;9.94;nan
79048;BME280;68680;50.764;6.120;2024-02-21T11:21:01;99330.94;;;9.68;nan
79048;BME280;68680;50.764;6.120;2024-02-21T11:23:27;99330.47;;;9.96;nan
79048;BME280;68680;50.764;6.120;2024-02-21T11:26:03;99306.97;;;10.04;nan
79048;BME280;68680;50.764;6.120;2024-02-21T11:28:29;99296.47;;;10.27;nan
79048;BME280;68680;50.764;6.120;2024-02-21T11:31:07;99288.88;;;9.95;nan
79048;BME280;68680;50.764;6.120;2024-02-21T11:33:34;99282.03;;;9.99;nan
79048;BME280;68680;50.764;6.120;2024-02-21T11:36:00;99289.34;;;10.03;nan
79048;BME280;68680;50.764;6.120;2024-02-21T11:38:25;99280.47;;;10.09;nan
79048;BME280;68680;50.764;6.120;2024-02-21T11:40:51;99263.94;;;9.89;nan
79048;BME280;68680;50.764;6.120;2024-02-21T11:43:17;99253.16;;;9.84;nan
79048;BME280;68680;50.764;6.120;2024-02-21T11:45:43;99267.78;;;9.93;nan
79048;BME280;68680;50.764;6.120;2024-02-21T11:48:10;99233.22;;;9.86;nan
79048;BME280;68680;50.764;6.120;2024-02-21T11:50:36;99222.06;;;10.08;nan
79048;BME280;68680;50.764;6.120;2024-02-21T11:53:03;99198.25;;;10.13;nan
79048;BME280;68680;50.764;6.120;2024-02-21T11:55:29;99158.44;;;10.29;nan
79048;BME280;68680;50.764;6.120;2024-02-21T11:57:55;99126.69;;;10.40;nan
79048;BME280;68680;50.764;6.120;2024-02-21T12:00:22;99123.94;;;10.58;nan
79048;BME280;68680;50.764;6.120;2024-02-21T12:02:50;99131.94;;;10.81;nan
79048;BME280;68680;50.764;6.120;2024-02-21T12:05:19;99135.88;;;10.55;nan
79048;BME280;68680;50.764;6.120;2024-02-21T12:07:45;99165.47;;;10.65;nan
79048;BME280;68680;50.764;6.120;2024-02-21T12:10:13;99223.34;;;10.77;nan
79048;BME280;68680;50.764;6.120;2024-02-21T12:12:40;99224.38;;;10.99;nan
79048;BME280;68680;50.764;6.120;2024-02-21T12:15:08;99195.13;;;11.16;nan
79048;BME280;68680;50.764;6.120;2024-02-21T12:17:34;99196.88;;;11.22;nan
79048;BME280;68680;50.764;6.120;2024-02-21T12:20:00;99184.34;;;11.10;nan
79048;BME280;68680;50.764;6.120;2024-02-21T12:22:27;99193.88;;;11.18;nan
79048;BME280;68680;50.764;6.120;2024-02-21T12:24:53;99164.22;;;11.31;nan
79048;BME280;68680;50.764;6.120;2024-02-21T12:27:19;99167.16;;;11.30;nan
79048;BME280;68680;50.764;6.120;2024-02-21T12:29:45;99167.28;;;11.23;nan
79048;BME280;68680;50.764;6.120;2024-02-21T12:32:11;99151.78;;;11.37;nan
79048;BME280;68680;50.764;6.120;2024-02-21T12:34:37;99172.63;;;11.63;nan
79048;BME280;68680;50.764;6.120;2024-02-21T12:37:03;99165.88;;;11.61;nan
79048;BME280;68680;50.764;6.120;2024-02-21T12:39:30;99159.44;;;11.45;nan
79048;BME280;68680;50.764;6.120;2024-02-21T12:41:56;99145.44;;;11.66;nan
79048;BME280;68680;50.764;6.120;2024-02-21T12:44:22;99143.56;;;11.78;nan
79048;BME280;68680;50.764;6.120;2024-02-21T12:46:48;99133.78;;;11.72;nan
79048;BME280;68680;50.764;6.120;2024-02-21T12:49:14;99147.75;;;11.74;nan
79048;BME280;68680;50.764;6.120;2024-02-21T12:51:40;99120.25;;;11.90;nan
79048;BME280;68680;50.764;6.120;2024-02-21T12:54:05;99132.75;;;12.02;nan
79048;BME280;68680;50.764;6.120;2024-02-21T12:56:32;99124.72;;;12.02;nan
79048;BME280;68680;50.764;6.120;2024-02-21T12:58:58;99112.78;;;11.76;nan
79048;BME280;68680;50.764;6.120;2024-02-21T13:01:24;99110.03;;;11.59;nan
79048;BME280;68680;50.764;6.120;2024-02-21T13:03:50;99102.72;;;11.54;nan
79048;BME280;68680;50.764;6.120;2024-02-21T13:06:16;99108.66;;;11.57;nan
79048;BME280;68680;50.764;6.120;2024-02-21T13:08:42;99103.72;;;11.37;nan
79048;BME280;68680;50.764;6.120;2024-02-21T13:11:08;99102.41;;;11.51;nan
79048;BME280;68680;50.764;6.120;2024-02-21T13:13:35;99106.88;;;11.34;nan
79048;BME280;68680;50.764;6.120;2024-02-21T13:16:01;99094.06;;;11.07;nan
79048;BME280;68680;50.764;6.120;2024-02-21T13:18:27;99084.84;;;10.87;nan
79048;BME280;68680;50.764;6.120;2024-02-21T13:20:53;99091.91;;;10.93;nan
79048;BME280;68680;50.764;6.120;2024-02-21T13:23:19;99086.47;;;10.88;nan
79048;BME280;68680;50.764;6.120;2024-02-21T13:25:45;99093.41;;;11.00;nan